createdAt,value
2022-09-07T00:00:06.138Z,4.20
2022-09-07T00:02:33.425Z,4.38
2022-09-07T00:05:00.597Z,4.18
2022-09-07T00:07:27.742Z,4.10
2022-09-07T00:09:54.974Z,3.58
2022-09-07T00:12:22.145Z,3.67
2022-09-07T00:14:49.261Z,3.80
2022-09-07T00:17:16.386Z,4.13
2022-09-07T00:19:43.539Z,4.00
2022-09-07T00:22:10.669Z,4.15
2022-09-07T00:24:37.786Z,4.45
2022-09-07T00:27:05.062Z,4.03
2022-09-07T00:29:32.239Z,4.17
2022-09-07T00:31:59.466Z,4.00
2022-09-07T00:34:26.606Z,4.55
2022-09-07T00:36:53.786Z,4.15
2022-09-07T00:39:20.920Z,3.65
2022-09-07T00:41:49.192Z,4.03
2022-09-07T00:44:36.339Z,4.13
2022-09-07T00:47:03.502Z,4.65
2022-09-07T00:49:30.883Z,3.83
2022-09-07T00:52:02.089Z,4.30
2022-09-07T00:54:32.482Z,4.43
2022-09-07T00:57:00.038Z,4.03
2022-09-07T00:59:29.738Z,4.65
2022-09-07T01:01:57.199Z,4.30
2022-09-07T01:04:24.803Z,4.43
2022-09-07T01:06:51.849Z,4.30
2022-09-07T01:09:20.693Z,4.50
2022-09-07T01:11:51.131Z,4.43
2022-09-07T01:14:21.945Z,4.15
2022-09-07T01:16:56.529Z,4.40
2022-09-07T01:19:43.626Z,4.28
2022-09-07T01:22:10.779Z,4.65
2022-09-07T01:24:39.030Z,4.47
2022-09-07T01:27:26.073Z,4.28
2022-09-07T01:29:58.258Z,4.40
2022-09-07T01:32:34.053Z,4.10
2022-09-07T01:35:02.986Z,4.35
2022-09-07T01:37:33.677Z,4.53
2022-09-07T01:40:07.320Z,4.38
2022-09-07T01:42:36.960Z,4.30
2022-09-07T01:45:05.973Z,4.30
2022-09-07T01:47:39.897Z,4.35
2022-09-07T01:50:11.113Z,4.20
2022-09-07T01:52:38.137Z,4.32
2022-09-07T01:55:05.405Z,4.53
2022-09-07T01:57:40.060Z,4.70
2022-09-07T02:00:09.746Z,4.80
2022-09-07T02:02:43.630Z,4.70
2022-09-07T02:05:15.232Z,4.20
2022-09-07T02:07:45.974Z,4.90
2022-09-07T02:10:16.840Z,4.43
2022-09-07T02:12:48.619Z,4.73
2022-09-07T02:15:17.433Z,4.72
2022-09-07T02:17:46.339Z,4.43
2022-09-07T02:20:16.724Z,4.70
2022-09-07T02:22:45.929Z,4.18
2022-09-07T02:25:17.377Z,4.50
2022-09-07T02:27:47.848Z,5.13
2022-09-07T02:30:16.531Z,5.03
2022-09-07T02:32:43.766Z,4.83
2022-09-07T02:35:11.175Z,5.18
2022-09-07T02:37:39.072Z,4.50
2022-09-07T02:40:06.959Z,4.40
2022-09-07T02:42:35.440Z,5.20
2022-09-07T02:45:04.859Z,5.65
2022-09-07T02:47:51.920Z,4.85
2022-09-07T02:50:45.307Z,4.80
2022-09-07T02:53:12.492Z,5.17
2022-09-07T02:55:42.936Z,5.40
2022-09-07T02:58:30.123Z,5.15
2022-09-07T03:01:09.394Z,4.85
2022-09-07T03:03:45.657Z,4.80
2022-09-07T03:06:18.288Z,5.38
2022-09-07T03:08:48.843Z,5.28
2022-09-07T03:11:16.044Z,4.90
2022-09-07T03:13:43.199Z,4.85
2022-09-07T03:16:17.833Z,4.85
2022-09-07T03:18:45.755Z,5.03
2022-09-07T03:21:12.823Z,4.80
2022-09-07T03:23:39.978Z,5.32
2022-09-07T03:26:07.221Z,4.65
2022-09-07T03:28:34.401Z,4.65
2022-09-07T03:31:02.871Z,4.80
2022-09-07T03:33:30.114Z,4.65
2022-09-07T03:35:58.818Z,4.93
2022-09-07T03:38:25.983Z,4.60
2022-09-07T03:41:00.824Z,4.65
2022-09-07T03:43:28.348Z,4.57
2022-09-07T03:46:03.019Z,4.53
2022-09-07T03:48:32.280Z,4.70
2022-09-07T03:51:00.557Z,4.22
2022-09-07T03:53:27.899Z,4.33
2022-09-07T03:55:56.944Z,4.63
2022-09-07T03:58:24.048Z,4.47
2022-09-07T04:00:51.280Z,4.70
2022-09-07T04:03:18.464Z,4.93
2022-09-07T04:05:45.512Z,4.70
2022-09-07T04:08:12.665Z,4.57
2022-09-07T04:10:39.907Z,4.45
2022-09-07T04:13:07.219Z,4.32
2022-09-07T04:15:34.744Z,4.10
2022-09-07T04:18:02.288Z,4.40
2022-09-07T04:20:30.955Z,4.28
2022-09-07T04:22:57.991Z,4.30
2022-09-07T04:25:25.259Z,4.43
2022-09-07T04:27:52.608Z,4.55
2022-09-07T04:30:19.796Z,4.22
2022-09-07T04:32:47.808Z,4.53
2022-09-07T04:35:15.123Z,4.20
2022-09-07T04:37:42.371Z,4.65
2022-09-07T04:40:09.840Z,4.70
2022-09-07T04:42:37.151Z,4.70
2022-09-07T04:45:04.671Z,4.60
2022-09-07T04:47:32.094Z,5.07
2022-09-07T04:49:59.291Z,5.05
2022-09-07T04:52:26.462Z,5.00
2022-09-07T04:54:53.651Z,4.80
2022-09-07T04:57:24.202Z,4.90
2022-09-07T04:59:51.907Z,5.43
2022-09-07T05:02:19.852Z,5.43
2022-09-07T05:04:47.081Z,5.30
2022-09-07T05:07:14.172Z,5.05
2022-09-07T05:09:41.442Z,5.57
2022-09-07T05:12:08.627Z,5.18
2022-09-07T05:14:35.879Z,5.38
2022-09-07T05:17:03.349Z,5.70
2022-09-07T05:19:30.646Z,5.60
2022-09-07T05:21:58.478Z,5.25
2022-09-07T05:24:26.874Z,5.35
2022-09-07T05:26:54.122Z,5.05
2022-09-07T05:32:08.898Z,5.00
2022-09-07T05:34:36.053Z,4.60
2022-09-07T05:37:03.210Z,5.55
2022-09-07T05:39:30.463Z,5.43
2022-09-07T05:41:57.689Z,5.30
2022-09-07T05:47:12.570Z,5.30
2022-09-07T05:49:39.823Z,5.43
2022-09-07T05:52:06.976Z,5.60
2022-09-07T05:54:34.642Z,5.75
2022-09-07T05:57:03.567Z,5.80
2022-09-07T05:59:30.822Z,5.40
2022-09-07T06:01:58.044Z,5.68
2022-09-07T06:04:25.217Z,5.95
2022-09-07T06:07:20.198Z,5.35
2022-09-07T06:12:27.981Z,6.60
2022-09-07T06:14:55.165Z,6.07
2022-09-07T06:17:22.378Z,5.97
2022-09-07T06:19:49.589Z,6.43
2022-09-07T06:22:16.693Z,7.53
2022-09-07T06:24:43.785Z,6.75
2022-09-07T06:27:11.097Z,6.47
2022-09-07T06:29:38.250Z,6.50
2022-09-07T06:34:52.625Z,6.53
2022-09-07T06:37:19.988Z,6.07
2022-09-07T06:39:49.347Z,5.63
2022-09-07T06:42:16.742Z,6.10
2022-09-07T06:44:43.847Z,5.97
2022-09-07T06:47:11.038Z,5.80
2022-09-07T06:49:38.154Z,5.97
2022-09-07T06:52:05.388Z,5.97
2022-09-07T06:57:19.768Z,6.05
2022-09-07T06:59:47.029Z,6.25
2022-09-07T07:02:16.890Z,6.38
2022-09-07T07:04:44.057Z,5.93
2022-09-07T07:07:12.311Z,5.75
2022-09-07T07:09:39.716Z,5.57
2022-09-07T07:12:07.001Z,5.78
2022-09-07T07:14:36.461Z,6.30
2022-09-07T07:17:05.986Z,6.20
2022-09-07T07:19:33.088Z,6.32
2022-09-07T07:24:47.680Z,8.10
2022-09-07T07:27:14.826Z,6.53
2022-09-07T07:29:41.979Z,6.03
2022-09-07T07:32:09.180Z,5.80
2022-09-07T07:34:36.309Z,5.72
2022-09-07T07:37:03.518Z,6.10
2022-09-07T07:42:18.361Z,6.05
2022-09-07T07:44:45.611Z,5.93
2022-09-07T07:47:12.726Z,5.93
2022-09-07T07:49:39.790Z,5.85
2022-09-07T07:54:54.133Z,4.90
2022-09-07T07:57:21.334Z,3.70
2022-09-07T07:59:48.449Z,4.20
2022-09-07T08:02:16.862Z,4.57
2022-09-07T08:04:44.182Z,3.83
2022-09-07T08:07:12.697Z,4.05
2022-09-07T08:09:42.640Z,3.80
2022-09-07T08:12:11.249Z,3.65
2022-09-07T08:14:41.179Z,3.95
2022-09-07T08:17:09.405Z,3.30
2022-09-07T08:19:36.477Z,2.88
2022-09-07T08:22:03.917Z,3.07
2022-09-07T08:24:32.097Z,2.58
2022-09-07T08:26:59.318Z,2.78
2022-09-07T08:29:27.194Z,2.53
2022-09-07T08:31:54.584Z,2.72
2022-09-07T08:34:21.903Z,2.50
2022-09-07T08:36:49.141Z,2.65
2022-09-07T08:39:16.513Z,2.60
2022-09-07T08:41:46.845Z,2.40
2022-09-07T08:44:19.492Z,2.50
2022-09-07T08:46:50.132Z,2.17
2022-09-07T08:49:20.693Z,2.47
2022-09-07T08:51:49.888Z,2.40
2022-09-07T08:54:17.608Z,2.33
2022-09-07T08:59:42.249Z,2.47
2022-09-07T09:02:31.875Z,2.30
2022-09-07T09:05:17.713Z,2.50
2022-09-07T09:07:46.423Z,2.35
2022-09-07T09:10:19.252Z,2.38
2022-09-07T09:13:06.296Z,2.30
2022-09-07T09:15:38.498Z,2.22
2022-09-07T09:18:25.584Z,2.25
2022-09-07T09:20:56.765Z,2.42
2022-09-07T09:23:25.744Z,2.40
2022-09-07T09:25:55.927Z,2.60
2022-09-07T09:28:25.505Z,2.50
2022-09-07T09:30:54.810Z,2.03
2022-09-07T09:33:23.531Z,1.75
2022-09-07T09:35:51.700Z,2.33
2022-09-07T09:38:39.510Z,1.83
2022-09-07T09:41:07.972Z,1.90
2022-09-07T09:43:37.292Z,2.20
2022-09-07T09:46:13.159Z,1.98
2022-09-07T09:48:41.507Z,2.22
2022-09-07T09:53:59.327Z,2.15
2022-09-07T09:56:44.153Z,2.35
2022-09-07T10:05:35.299Z,2.33
2022-09-07T10:08:03.450Z,2.20
2022-09-07T10:10:31.571Z,2.10
2022-09-07T10:12:58.854Z,2.30
2022-09-07T10:15:29.865Z,2.10
2022-09-07T10:17:57.966Z,2.20
2022-09-07T10:20:30.754Z,2.20
2022-09-07T10:22:59.223Z,2.35
2022-09-07T10:25:31.210Z,2.20
2022-09-07T10:28:02.561Z,2.33
2022-09-07T10:30:34.114Z,2.13
2022-09-07T10:33:09.071Z,2.38
2022-09-07T10:35:41.746Z,2.10
2022-09-07T10:38:17.449Z,2.25
2022-09-07T10:40:47.606Z,2.17
2022-09-07T10:43:22.808Z,2.30
2022-09-07T10:46:05.665Z,2.40
2022-09-07T10:48:39.050Z,2.35
2022-09-07T10:51:13.955Z,2.33
2022-09-07T10:53:47.274Z,2.40
2022-09-07T10:56:20.437Z,2.38
2022-09-07T10:59:07.396Z,2.50
2022-09-07T11:01:34.460Z,3.10
2022-09-07T11:04:02.595Z,2.40
2022-09-07T11:06:32.990Z,2.50
2022-09-07T11:09:21.975Z,2.20
2022-09-07T11:12:03.163Z,2.30
2022-09-07T11:14:33.865Z,2.13
2022-09-07T11:17:02.705Z,2.10
2022-09-07T11:19:37.064Z,2.00
2022-09-07T11:22:08.029Z,3.20
2022-09-07T11:24:45.467Z,2.72
2022-09-07T11:27:23.489Z,2.27
2022-09-07T11:29:55.697Z,1.80
2022-09-07T11:32:25.094Z,2.10
2022-09-07T11:34:56.081Z,2.08
2022-09-07T11:37:27.157Z,2.10
2022-09-07T11:39:58.742Z,2.28
2022-09-07T11:42:47.004Z,2.00
2022-09-07T11:45:20.113Z,2.27
2022-09-07T11:47:50.488Z,2.20
2022-09-07T11:50:19.203Z,1.90
2022-09-07T11:52:53.684Z,2.00
2022-09-07T11:55:25.297Z,1.95
2022-09-07T11:58:12.314Z,2.27
2022-09-07T12:00:39.437Z,1.90
2022-09-07T12:03:23.590Z,2.20
2022-09-07T12:06:10.606Z,2.00
2022-09-07T12:08:57.581Z,2.03
2022-09-07T12:11:44.605Z,1.98
2022-09-07T12:14:15.949Z,2.25
2022-09-07T12:17:08.908Z,1.95
2022-09-07T12:19:35.995Z,2.20
2022-09-07T12:22:03.184Z,1.80
2022-09-07T12:24:51.229Z,2.10
2022-09-07T12:27:21.631Z,2.50
2022-09-07T12:30:08.616Z,2.20
2022-09-07T12:32:53.974Z,2.20
2022-09-07T12:35:29.757Z,2.10
2022-09-07T12:37:57.680Z,1.90
2022-09-07T12:40:28.306Z,1.90
2022-09-07T12:43:15.299Z,2.08
2022-09-07T12:45:42.486Z,2.28
2022-09-07T12:48:16.982Z,2.05
2022-09-07T12:50:51.361Z,2.30
2022-09-07T12:53:24.212Z,2.00
2022-09-07T12:59:01.694Z,2.10
2022-09-07T13:01:34.868Z,2.00
2022-09-07T13:04:09.360Z,2.05
2022-09-07T13:07:03.773Z,2.20
2022-09-07T13:09:39.100Z,2.40
2022-09-07T13:15:33.412Z,2.20
2022-09-07T13:18:00.812Z,2.58
2022-09-07T13:20:34.849Z,2.30
2022-09-07T13:23:09.206Z,2.10
2022-09-07T13:25:36.239Z,2.47
2022-09-07T13:28:06.111Z,2.05
2022-09-07T13:30:53.509Z,2.30
2022-09-07T13:33:36.188Z,2.15
2022-09-07T13:36:05.100Z,2.08
2022-09-07T13:38:33.124Z,1.90
2022-09-07T13:41:04.763Z,1.92
2022-09-07T13:43:31.946Z,2.30
2022-09-07T13:46:02.052Z,1.90
2022-09-07T13:48:49.086Z,2.07
2022-09-07T13:51:17.157Z,2.30
2022-09-07T13:53:51.710Z,2.05
2022-09-07T13:56:20.331Z,2.42
2022-09-07T13:58:49.315Z,1.95
2022-09-07T14:01:19.324Z,2.30
2022-09-07T14:03:49.219Z,2.03
2022-09-07T14:06:27.319Z,2.28
2022-09-07T14:08:56.815Z,2.20
2022-09-07T14:11:23.961Z,2.25
2022-09-07T14:14:07.303Z,2.10
2022-09-07T14:16:35.480Z,2.20
2022-09-07T14:19:03.402Z,2.28
2022-09-07T14:21:30.474Z,2.10
2022-09-07T14:24:03.130Z,2.00
2022-09-07T14:26:29.956Z,2.00
2022-09-07T14:28:57.490Z,1.77
2022-09-07T14:31:25.730Z,1.80
2022-09-07T14:33:53.883Z,1.60
2022-09-07T14:36:44.679Z,1.85
2022-09-07T14:39:09.777Z,1.60
2022-09-07T14:41:38.386Z,1.80
2022-09-07T14:44:06.444Z,1.70
2022-09-07T14:46:34.758Z,1.90
2022-09-07T14:49:04.313Z,1.67
2022-09-07T14:51:36.201Z,1.80
2022-09-07T14:54:05.791Z,1.70
2022-09-07T14:56:35.882Z,1.70
2022-09-07T14:59:03.021Z,2.13
2022-09-07T15:01:37.876Z,2.00
2022-09-07T15:04:16.610Z,2.00
2022-09-07T15:07:01.811Z,1.50
2022-09-07T15:09:30.997Z,1.90
2022-09-07T15:12:05.892Z,1.63
2022-09-07T15:14:32.972Z,1.50
2022-09-07T15:19:50.213Z,1.58
2022-09-07T15:22:18.113Z,1.55
2022-09-07T15:24:48.593Z,1.70
2022-09-07T15:27:20.383Z,1.80
2022-09-07T15:29:48.086Z,1.70
2022-09-07T15:32:16.710Z,1.85
2022-09-07T15:34:45.088Z,1.60
2022-09-07T15:39:59.768Z,1.38
2022-09-07T15:45:15.088Z,1.70
2022-09-07T15:47:47.120Z,1.60
2022-09-07T15:50:17.800Z,1.60
2022-09-07T15:52:46.439Z,1.45
2022-09-07T15:55:17.013Z,1.50
2022-09-07T15:57:59.305Z,1.50
2022-09-07T16:00:31.497Z,1.50
2022-09-07T16:03:07.239Z,2.20
2022-09-07T16:05:35.200Z,3.45
2022-09-07T16:10:55.544Z,1.75
2022-09-07T16:13:24.270Z,1.40
2022-09-07T16:15:51.780Z,1.58
2022-09-07T16:18:19.309Z,1.27
2022-09-07T16:20:47.281Z,1.23
2022-09-07T16:23:16.810Z,1.53
2022-09-07T16:25:55.976Z,1.55
2022-09-07T16:28:23.057Z,1.70
2022-09-07T16:30:50.219Z,1.98
2022-09-07T16:33:17.305Z,1.70
2022-09-07T16:35:44.532Z,1.80
2022-09-07T16:40:59.040Z,1.55
2022-09-07T16:43:26.169Z,1.45
2022-09-07T16:46:10.389Z,1.60
2022-09-07T16:48:37.735Z,1.48
2022-09-07T16:51:05.166Z,1.98
2022-09-07T16:53:33.633Z,1.73
2022-09-07T16:56:03.202Z,4.35
2022-09-07T16:58:35.756Z,1.88
2022-09-07T17:01:03.970Z,1.50
2022-09-07T17:03:31.391Z,1.92
2022-09-07T17:06:00.316Z,2.45
2022-09-07T17:08:27.413Z,2.50
2022-09-07T17:11:02.653Z,2.60
2022-09-07T17:13:31.065Z,1.80
2022-09-07T17:16:07.837Z,1.80
2022-09-07T17:21:22.790Z,1.50
2022-09-07T17:23:55.106Z,1.75
2022-09-07T17:26:26.027Z,1.63
2022-09-07T17:28:54.579Z,2.33
2022-09-07T17:34:11.081Z,3.30
2022-09-07T17:36:38.141Z,2.33
2022-09-07T17:39:21.175Z,2.20
2022-09-07T17:41:52.731Z,1.60
2022-09-07T17:44:20.072Z,2.00
2022-09-07T17:46:47.136Z,1.83
2022-09-07T17:49:16.363Z,2.05
2022-09-07T17:51:44.354Z,1.80
2022-09-07T17:54:14.763Z,1.75
2022-09-07T17:56:42.305Z,1.77
2022-09-07T18:01:56.958Z,2.08
2022-09-07T18:04:24.337Z,1.90
2022-09-07T18:06:51.961Z,1.73
2022-09-07T18:09:19.737Z,2.20
2022-09-07T18:11:48.629Z,1.80
2022-09-07T18:14:16.441Z,2.30
2022-09-07T18:16:44.097Z,1.90
2022-09-07T18:19:12.080Z,1.70
2022-09-07T18:21:40.906Z,1.93
2022-09-07T18:24:13.555Z,1.80
2022-09-07T18:26:41.356Z,1.85
2022-09-07T18:29:19.225Z,1.88
2022-09-07T18:31:55.168Z,1.90
2022-09-07T18:34:22.522Z,1.63
2022-09-07T18:36:49.628Z,1.88
2022-09-07T18:39:16.706Z,2.10
2022-09-07T18:41:43.958Z,2.00
2022-09-07T18:46:58.087Z,2.20
2022-09-07T18:49:25.250Z,2.20
2022-09-07T18:54:42.447Z,2.13
2022-09-07T18:57:09.534Z,2.50
2022-09-07T18:59:36.776Z,2.58
2022-09-07T19:02:05.965Z,2.50
2022-09-07T19:07:26.053Z,2.55
2022-09-07T19:09:56.091Z,2.92
2022-09-07T19:12:24.416Z,3.05
2022-09-07T19:14:51.783Z,2.90
2022-09-07T19:17:19.128Z,2.40
2022-09-07T19:19:46.264Z,2.63
2022-09-07T19:22:13.347Z,2.42
2022-09-07T19:24:40.608Z,2.40
2022-09-07T19:27:07.688Z,2.43
2022-09-07T19:29:34.863Z,2.70
2022-09-07T19:32:05.266Z,2.67
2022-09-07T19:34:34.438Z,2.60
2022-09-07T19:37:02.000Z,2.53
2022-09-07T19:39:29.441Z,2.93
2022-09-07T19:41:56.529Z,2.80
2022-09-07T19:44:23.758Z,2.80
2022-09-07T19:46:51.106Z,2.67
2022-09-07T19:49:18.235Z,2.63
2022-09-07T19:51:45.369Z,2.58
2022-09-07T19:54:13.660Z,2.50
2022-09-07T19:56:42.785Z,2.80
2022-09-07T19:59:10.102Z,2.90
2022-09-07T20:01:38.722Z,3.20
2022-09-07T20:04:06.644Z,3.50
2022-09-07T20:06:34.510Z,2.65
2022-09-07T20:09:01.776Z,2.83
2022-09-07T20:11:28.980Z,2.80
2022-09-07T20:13:57.159Z,2.83
2022-09-07T20:16:24.796Z,2.65
2022-09-07T20:18:52.270Z,2.47
2022-09-07T20:21:21.312Z,2.80
2022-09-07T20:23:48.462Z,2.77
2022-09-07T20:26:16.999Z,3.00
2022-09-07T20:28:44.499Z,2.55
2022-09-07T20:31:11.600Z,2.67
2022-09-07T20:33:38.767Z,4.82
2022-09-07T20:36:07.227Z,4.25
2022-09-07T20:38:34.558Z,4.10
2022-09-07T20:41:01.788Z,5.53
2022-09-07T20:43:28.890Z,3.30
2022-09-07T20:45:57.887Z,2.50
2022-09-07T20:48:24.967Z,2.83
2022-09-07T20:50:56.619Z,2.95
2022-09-07T20:53:23.699Z,3.05
2022-09-07T20:55:58.971Z,2.88
2022-09-07T20:58:26.075Z,2.70
2022-09-07T21:00:53.693Z,2.70
2022-09-07T21:03:21.008Z,3.50
2022-09-07T21:05:48.307Z,3.30
2022-09-07T21:08:15.684Z,2.70
2022-09-07T21:10:43.539Z,3.10
2022-09-07T21:13:10.774Z,3.03
2022-09-07T21:15:39.525Z,2.88
2022-09-07T21:18:07.199Z,2.95
2022-09-07T21:20:34.326Z,2.92
2022-09-07T21:23:01.414Z,2.72
2022-09-07T21:25:28.503Z,2.42
2022-09-07T21:27:55.610Z,2.78
2022-09-07T21:30:22.351Z,3.08
2022-09-07T21:32:51.567Z,3.00
2022-09-07T21:35:19.277Z,3.00
2022-09-07T21:37:46.606Z,2.83
2022-09-07T21:40:13.742Z,2.90
2022-09-07T21:42:40.814Z,2.72
2022-09-07T21:45:09.199Z,2.80
2022-09-07T21:47:36.347Z,3.17
2022-09-07T21:50:04.923Z,2.50
2022-09-07T21:52:32.045Z,2.60
2022-09-07T21:54:59.200Z,2.83
2022-09-07T21:57:26.344Z,2.85
2022-09-07T21:59:53.535Z,2.67
2022-09-07T22:02:20.518Z,2.70
2022-09-07T22:04:47.567Z,2.65
2022-09-07T22:07:14.684Z,2.90
2022-09-07T22:09:41.831Z,2.60
2022-09-07T22:12:08.931Z,2.80
2022-09-07T22:14:36.011Z,2.63
2022-09-07T22:17:03.141Z,2.70
2022-09-07T22:19:30.251Z,2.85
2022-09-07T22:21:57.342Z,2.83
2022-09-07T22:24:24.451Z,3.13
2022-09-07T22:26:51.562Z,2.33
2022-09-07T22:29:18.650Z,2.58
2022-09-07T22:31:45.822Z,2.53
2022-09-07T22:34:12.969Z,2.58
2022-09-07T22:36:41.394Z,2.38
2022-09-07T22:39:11.149Z,2.42
2022-09-07T22:41:38.326Z,2.20
2022-09-07T22:44:06.593Z,2.42
2022-09-07T22:46:35.875Z,2.40
2022-09-07T22:49:03.029Z,2.70
2022-09-07T22:51:30.121Z,3.03
2022-09-07T22:53:57.257Z,3.03
2022-09-07T22:56:26.408Z,2.60
2022-09-07T22:58:54.951Z,2.65
2022-09-07T23:01:22.462Z,3.10
2022-09-07T23:03:49.930Z,2.90
2022-09-07T23:06:21.797Z,3.13
2022-09-07T23:08:49.621Z,2.78
2022-09-07T23:11:17.270Z,2.80
2022-09-07T23:13:44.669Z,2.85
2022-09-07T23:16:12.277Z,3.10
2022-09-07T23:18:40.865Z,3.35
2022-09-07T23:21:08.766Z,2.70
2022-09-07T23:23:35.906Z,2.97
2022-09-07T23:26:03.612Z,2.90
2022-09-07T23:28:31.220Z,2.77
2022-09-07T23:30:58.853Z,2.90
2022-09-07T23:33:26.209Z,2.80
2022-09-07T23:36:01.562Z,3.00
2022-09-07T23:38:29.049Z,3.03
2022-09-07T23:40:57.143Z,2.67
2022-09-07T23:43:24.807Z,3.10
2022-09-07T23:45:51.862Z,2.90
2022-09-07T23:48:18.980Z,2.60
2022-09-07T23:50:46.556Z,2.67
2022-09-07T23:53:13.725Z,2.72
2022-09-07T23:55:41.216Z,2.55
2022-09-07T23:58:08.796Z,2.50
